createdAt,value
2017-12-20T00:02:28.916Z,5.90
2017-12-20T00:04:59.752Z,5.80
2017-12-20T00:07:30.404Z,5.80
2017-12-20T00:10:00.985Z,5.80
2017-12-20T00:12:32.193Z,5.80
2017-12-20T00:15:02.885Z,5.80
2017-12-20T00:17:33.465Z,5.80
2017-12-20T00:20:03.720Z,5.80
2017-12-20T00:22:34.652Z,5.80
2017-12-20T00:25:05.392Z,5.80
2017-12-20T00:27:36.012Z,5.80
2017-12-20T00:30:06.893Z,5.80
2017-12-20T00:32:37.515Z,5.80
2017-12-20T00:35:07.927Z,5.80
2017-12-20T00:37:38.633Z,5.80
2017-12-20T00:40:08.736Z,5.80
2017-12-20T00:42:39.124Z,5.80
2017-12-20T00:45:09.880Z,5.70
2017-12-20T00:47:40.229Z,5.70
2017-12-20T00:50:11.160Z,5.70
2017-12-20T00:52:41.811Z,5.70
2017-12-20T00:55:12.370Z,5.70
2017-12-20T00:57:42.959Z,5.70
2017-12-20T01:00:13.892Z,5.70
2017-12-20T01:02:44.453Z,5.70
2017-12-20T01:05:15.035Z,5.70
2017-12-20T01:07:45.807Z,5.70
2017-12-20T01:10:16.708Z,5.70
2017-12-20T01:12:47.008Z,5.70
2017-12-20T01:15:18.706Z,5.70
2017-12-20T01:17:50.051Z,5.70
2017-12-20T01:20:20.990Z,5.70
2017-12-20T01:22:51.990Z,5.80
2017-12-20T01:25:23.355Z,5.80
2017-12-20T01:27:53.749Z,5.80
2017-12-20T01:30:25.562Z,5.80
2017-12-20T01:32:56.572Z,5.70
2017-12-20T01:35:28.057Z,5.80
2017-12-20T01:37:58.615Z,5.80
2017-12-20T01:40:29.286Z,5.80
2017-12-20T01:42:59.844Z,5.80
2017-12-20T01:45:31.192Z,5.70
2017-12-20T01:48:02.023Z,5.70
2017-12-20T01:50:32.740Z,5.70
2017-12-20T01:53:03.219Z,5.70
2017-12-20T01:55:33.720Z,5.70
2017-12-20T01:58:04.569Z,5.70
2017-12-20T02:00:35.356Z,5.70
2017-12-20T02:03:06.576Z,5.60
2017-12-20T02:05:38.147Z,5.60
2017-12-20T02:08:09.250Z,5.60
2017-12-20T02:10:40.311Z,5.60
2017-12-20T02:13:11.257Z,5.60
2017-12-20T02:15:42.728Z,5.70
2017-12-20T02:18:14.614Z,5.70
2017-12-20T02:20:45.395Z,5.60
2017-12-20T02:23:16.779Z,5.70
2017-12-20T02:25:47.714Z,5.60
2017-12-20T02:28:18.775Z,5.60
2017-12-20T02:30:49.549Z,5.70
2017-12-20T02:33:30.903Z,5.60
2017-12-20T02:36:01.653Z,5.60
2017-12-20T02:38:37.523Z,5.60
2017-12-20T02:41:08.981Z,5.60
2017-12-20T02:43:39.490Z,5.60
2017-12-20T02:46:10.475Z,5.60
2017-12-20T02:48:41.819Z,5.70
2017-12-20T02:51:12.338Z,5.70
2017-12-20T02:53:43.538Z,5.70
2017-12-20T02:56:15.276Z,5.70
2017-12-20T02:58:45.804Z,5.70
2017-12-20T03:01:18.402Z,5.70
2017-12-20T03:03:48.791Z,5.70
2017-12-20T03:06:20.462Z,5.70
2017-12-20T03:08:51.069Z,5.80
2017-12-20T03:11:22.310Z,5.90
2017-12-20T03:13:53.424Z,5.80
2017-12-20T03:16:24.625Z,5.70
2017-12-20T03:18:54.908Z,5.80
2017-12-20T03:21:25.670Z,5.80
2017-12-20T03:23:56.013Z,5.80
2017-12-20T03:26:27.329Z,5.80
2017-12-20T03:28:57.734Z,5.80
2017-12-20T03:31:28.949Z,5.80
2017-12-20T03:33:59.498Z,5.80
2017-12-20T03:36:31.460Z,5.80
2017-12-20T03:39:01.994Z,5.80
2017-12-20T03:41:32.798Z,5.80
2017-12-20T03:44:03.455Z,5.80
2017-12-20T03:46:34.057Z,5.80
2017-12-20T03:49:05.078Z,5.80
2017-12-20T03:51:35.551Z,5.80
2017-12-20T03:54:07.189Z,5.90
2017-12-20T03:56:38.822Z,5.90
2017-12-20T03:59:09.343Z,5.90
2017-12-20T04:01:40.994Z,5.90
2017-12-20T04:04:11.861Z,5.90
2017-12-20T04:06:42.306Z,6.00
2017-12-20T04:09:13.608Z,5.90
2017-12-20T04:11:44.394Z,5.90
2017-12-20T04:14:15.784Z,5.90
2017-12-20T04:16:46.275Z,5.90
2017-12-20T04:19:17.619Z,5.90
2017-12-20T04:21:49.809Z,5.80
2017-12-20T04:24:20.111Z,5.80
2017-12-20T04:26:50.657Z,5.80
2017-12-20T04:29:21.934Z,5.80
2017-12-20T04:31:52.446Z,5.80
2017-12-20T04:34:22.989Z,5.80
2017-12-20T04:36:55.373Z,5.80
2017-12-20T04:39:25.692Z,5.80
2017-12-20T04:41:57.050Z,5.80
2017-12-20T04:44:27.842Z,5.80
2017-12-20T04:46:59.289Z,5.70
2017-12-20T04:49:30.309Z,5.70
2017-12-20T04:52:00.834Z,5.70
2017-12-20T04:54:31.542Z,5.70
2017-12-20T04:57:02.269Z,5.70
2017-12-20T04:59:33.653Z,5.60
2017-12-20T05:02:04.266Z,5.60
2017-12-20T05:04:36.367Z,5.70
2017-12-20T05:07:07.540Z,5.70
2017-12-20T05:09:37.974Z,5.70
2017-12-20T05:12:09.723Z,5.70
2017-12-20T05:15:10.738Z,5.60
2017-12-20T05:17:41.706Z,5.70
2017-12-20T05:20:12.261Z,5.80
2017-12-20T05:22:42.825Z,5.80
2017-12-20T05:25:13.033Z,5.70
2017-12-20T05:27:43.791Z,5.80
2017-12-20T05:30:15.138Z,5.80
2017-12-20T05:32:45.893Z,5.90
2017-12-20T05:35:16.348Z,5.80
2017-12-20T05:37:46.825Z,5.80
2017-12-20T05:40:17.777Z,5.80
2017-12-20T05:42:48.727Z,5.80
2017-12-20T05:45:19.070Z,5.80
2017-12-20T05:47:50.005Z,5.70
2017-12-20T05:50:20.379Z,5.70
2017-12-20T05:52:50.901Z,5.80
2017-12-20T05:55:21.221Z,5.70
2017-12-20T05:57:52.943Z,5.70
2017-12-20T06:00:23.388Z,5.70
2017-12-20T06:02:53.618Z,5.70
2017-12-20T06:05:23.817Z,5.80
2017-12-20T06:08:01.187Z,5.80
2017-12-20T06:10:35.948Z,5.70
2017-12-20T06:13:13.172Z,5.70
2017-12-20T06:15:53.101Z,5.80
2017-12-20T06:18:29.845Z,5.80
2017-12-20T06:21:07.169Z,5.80
2017-12-20T06:23:37.608Z,5.80
2017-12-20T06:26:08.397Z,5.80
2017-12-20T06:28:38.858Z,5.80
2017-12-20T06:31:10.124Z,5.80
2017-12-20T06:33:40.869Z,5.80
2017-12-20T06:36:11.180Z,5.80
2017-12-20T06:38:41.470Z,5.80
2017-12-20T06:41:11.714Z,5.80
2017-12-20T06:43:43.208Z,5.90
2017-12-20T06:46:13.877Z,5.80
2017-12-20T06:48:44.410Z,5.80
2017-12-20T06:51:15.576Z,5.90
2017-12-20T06:53:47.007Z,5.90
2017-12-20T06:56:18.138Z,5.90
2017-12-20T06:58:48.741Z,5.90
2017-12-20T07:01:19.378Z,6.00
2017-12-20T07:03:49.791Z,6.00
2017-12-20T07:06:20.226Z,6.00
2017-12-20T07:08:51.036Z,6.00
2017-12-20T07:11:22.284Z,6.00
2017-12-20T07:13:53.986Z,6.00
2017-12-20T07:16:24.726Z,6.00
2017-12-20T07:18:55.605Z,6.10
2017-12-20T07:21:26.002Z,6.10
2017-12-20T07:23:57.363Z,6.00
2017-12-20T07:26:27.956Z,6.00
2017-12-20T07:28:59.289Z,6.00
2017-12-20T07:31:29.750Z,6.00
2017-12-20T07:34:01.165Z,6.10
2017-12-20T07:36:32.581Z,6.10
2017-12-20T07:39:03.281Z,6.10
2017-12-20T07:41:34.343Z,6.10
2017-12-20T07:44:04.977Z,6.00
2017-12-20T07:46:35.359Z,6.10
2017-12-20T07:49:06.048Z,6.00
2017-12-20T07:51:36.455Z,6.00
2017-12-20T07:54:07.579Z,6.10
2017-12-20T07:56:38.764Z,6.10
2017-12-20T07:59:09.174Z,6.10
2017-12-20T08:01:39.954Z,6.10
2017-12-20T08:04:10.696Z,6.10
2017-12-20T08:06:42.901Z,6.10
2017-12-20T08:09:13.371Z,6.10
2017-12-20T08:11:43.864Z,6.10
2017-12-20T08:14:14.360Z,6.10
2017-12-20T08:16:45.464Z,6.10
2017-12-20T08:19:15.822Z,6.00
2017-12-20T08:21:46.578Z,6.00
2017-12-20T08:24:17.398Z,6.10
2017-12-20T08:26:48.074Z,6.10
2017-12-20T08:29:18.650Z,6.10
2017-12-20T08:31:50.324Z,6.10
2017-12-20T08:34:22.184Z,6.00
2017-12-20T08:36:54.674Z,6.00
2017-12-20T08:39:25.216Z,6.00
2017-12-20T08:41:55.906Z,6.10
2017-12-20T08:44:26.478Z,6.10
2017-12-20T08:46:57.497Z,6.10
2017-12-20T08:49:28.584Z,6.10
2017-12-20T08:51:59.744Z,6.10
2017-12-20T08:54:30.646Z,6.10
2017-12-20T08:57:01.213Z,6.20
2017-12-20T08:59:32.580Z,6.20
2017-12-20T09:02:03.781Z,6.20
2017-12-20T09:04:34.564Z,6.20
2017-12-20T09:07:05.624Z,6.20
2017-12-20T09:09:36.185Z,6.20
2017-12-20T09:12:06.663Z,6.30
2017-12-20T09:14:37.185Z,6.20
2017-12-20T09:17:08.498Z,6.20
2017-12-20T09:19:39.013Z,6.20
2017-12-20T09:22:09.621Z,6.20
2017-12-20T09:24:40.281Z,6.20
2017-12-20T09:27:10.815Z,6.20
2017-12-20T09:29:41.251Z,6.20
2017-12-20T09:32:11.838Z,6.20
2017-12-20T09:34:43.061Z,6.30
2017-12-20T09:37:14.317Z,6.30
2017-12-20T09:39:45.558Z,6.30
2017-12-20T09:42:16.240Z,6.30
2017-12-20T09:44:47.882Z,6.30
2017-12-20T09:47:18.330Z,6.30
2017-12-20T09:49:48.922Z,6.40
2017-12-20T09:52:19.844Z,6.40
2017-12-20T09:54:50.327Z,6.50
2017-12-20T09:57:20.947Z,6.40
2017-12-20T09:59:51.360Z,6.50
2017-12-20T10:02:23.009Z,6.40
2017-12-20T10:04:53.477Z,6.40
2017-12-20T10:07:24.873Z,6.40
2017-12-20T10:09:55.409Z,6.40
2017-12-20T10:12:25.988Z,6.40
2017-12-20T10:14:57.040Z,6.50
2017-12-20T10:17:27.744Z,6.50
2017-12-20T10:20:02.040Z,6.50
2017-12-20T10:22:34.277Z,6.50
2017-12-20T10:25:06.471Z,6.50
2017-12-20T10:27:38.899Z,6.50
2017-12-20T10:30:09.926Z,6.60
2017-12-20T10:35:11.235Z,6.50
2017-12-20T10:37:41.558Z,6.50
2017-12-20T10:40:12.282Z,6.50
2017-12-20T10:42:43.343Z,6.50
2017-12-20T10:45:13.867Z,6.40
2017-12-20T10:47:44.402Z,6.40
2017-12-20T10:50:15.703Z,6.50
2017-12-20T10:52:47.165Z,6.50
2017-12-20T10:55:19.176Z,6.40
2017-12-20T10:57:49.484Z,6.40
2017-12-20T11:00:20.013Z,6.40
2017-12-20T11:02:50.973Z,6.40
2017-12-20T11:05:22.436Z,6.40
2017-12-20T11:07:53.061Z,6.40
2017-12-20T11:10:24.067Z,6.40
2017-12-20T11:12:54.753Z,6.40
2017-12-20T11:15:25.569Z,6.50
2017-12-20T11:17:56.923Z,6.60
2017-12-20T11:20:28.662Z,6.50
2017-12-20T11:22:59.418Z,6.60
2017-12-20T11:25:30.566Z,6.60
2017-12-20T11:28:02.089Z,6.60
2017-12-20T11:30:32.789Z,6.60
2017-12-20T11:33:04.075Z,6.70
2017-12-20T11:35:34.842Z,6.70
2017-12-20T11:38:06.306Z,6.80
2017-12-20T11:40:37.339Z,6.70
2017-12-20T11:43:08.717Z,6.80
2017-12-20T11:45:40.240Z,6.80
2017-12-20T11:48:11.893Z,6.80
2017-12-20T11:50:43.959Z,6.80
2017-12-20T11:53:15.098Z,6.80
2017-12-20T11:55:46.018Z,6.70
2017-12-20T11:58:17.288Z,6.80
2017-12-20T12:00:48.479Z,6.80
2017-12-20T12:03:20.083Z,7.00
2017-12-20T12:05:51.474Z,7.00
2017-12-20T12:08:22.439Z,7.00
2017-12-20T12:10:52.930Z,7.00
2017-12-20T12:13:23.426Z,7.00
2017-12-20T12:15:53.964Z,6.90
2017-12-20T12:18:24.681Z,6.90
2017-12-20T12:20:55.694Z,6.80
2017-12-20T12:23:27.090Z,6.90
2017-12-20T12:25:57.916Z,6.90
2017-12-20T12:28:29.475Z,6.80
2017-12-20T12:31:00.169Z,6.90
2017-12-20T12:33:32.028Z,6.90
2017-12-20T12:36:26.342Z,6.80
2017-12-20T12:38:59.712Z,6.80
2017-12-20T12:41:30.125Z,6.90
2017-12-20T12:44:01.320Z,7.00
2017-12-20T12:46:32.073Z,6.90
2017-12-20T12:49:02.631Z,6.90
2017-12-20T12:51:33.818Z,7.20
2017-12-20T12:54:05.050Z,7.10
2017-12-20T12:56:35.366Z,7.10
2017-12-20T12:59:05.659Z,7.20
2017-12-20T13:01:36.228Z,7.20
2017-12-20T13:04:07.066Z,7.20
2017-12-20T13:06:38.314Z,7.40
2017-12-20T13:09:08.878Z,7.40
2017-12-20T13:11:39.820Z,7.40
2017-12-20T13:14:10.845Z,7.40
2017-12-20T13:16:42.802Z,7.40
2017-12-20T13:19:13.966Z,7.30
2017-12-20T13:21:44.508Z,7.30
2017-12-20T13:24:15.091Z,7.30
2017-12-20T13:26:47.396Z,7.20
2017-12-20T13:29:17.883Z,7.20
2017-12-20T13:31:49.076Z,7.10
2017-12-20T13:34:20.135Z,7.00
2017-12-20T13:36:50.550Z,7.10
2017-12-20T13:39:20.876Z,7.10
2017-12-20T13:41:51.420Z,7.10
2017-12-20T13:44:22.111Z,7.10
2017-12-20T13:46:52.789Z,7.30
2017-12-20T13:49:23.687Z,7.30
2017-12-20T13:51:54.555Z,7.20
2017-12-20T13:54:25.265Z,7.20
2017-12-20T13:56:55.653Z,7.20
2017-12-20T13:59:26.168Z,7.20
2017-12-20T14:01:56.559Z,7.20
2017-12-20T14:04:28.388Z,7.20
2017-12-20T14:06:59.050Z,7.10
2017-12-20T14:09:30.601Z,7.00
2017-12-20T14:12:02.530Z,7.00
2017-12-20T14:14:33.387Z,7.00
2017-12-20T14:17:04.540Z,7.20
2017-12-20T14:19:35.026Z,7.20
2017-12-20T14:22:04.794Z,7.20
2017-12-20T14:24:36.346Z,7.10
2017-12-20T14:27:08.394Z,7.10
2017-12-20T14:29:38.901Z,7.20
2017-12-20T14:32:10.758Z,7.30
2017-12-20T14:34:41.201Z,7.30
2017-12-20T14:37:12.480Z,7.30
2017-12-20T14:39:43.112Z,7.30
2017-12-20T14:42:13.549Z,7.30
2017-12-20T14:44:44.778Z,7.20
2017-12-20T14:47:15.089Z,7.20
2017-12-20T14:49:46.326Z,7.20
2017-12-20T14:52:16.748Z,7.00
2017-12-20T14:54:47.459Z,7.00
2017-12-20T14:57:18.073Z,7.00
2017-12-20T14:59:49.559Z,7.00
2017-12-20T15:02:22.022Z,7.00
2017-12-20T15:04:55.853Z,7.00
2017-12-20T15:07:26.411Z,7.00
2017-12-20T15:09:57.937Z,7.10
2017-12-20T15:12:29.392Z,7.00
2017-12-20T15:15:00.118Z,7.00
2017-12-20T15:17:31.970Z,7.00
2017-12-20T15:20:03.465Z,7.00
2017-12-20T15:22:34.678Z,7.00
2017-12-20T15:25:06.554Z,7.00
2017-12-20T15:27:37.038Z,7.00
2017-12-20T15:30:07.587Z,7.20
2017-12-20T15:32:39.246Z,7.10
2017-12-20T15:35:09.891Z,7.00
2017-12-20T15:37:40.563Z,7.00
2017-12-20T15:40:11.281Z,7.00
2017-12-20T15:42:42.030Z,7.10
2017-12-20T15:45:12.731Z,7.10
2017-12-20T15:47:43.482Z,7.10
2017-12-20T15:50:14.392Z,7.20
2017-12-20T15:52:44.897Z,7.20
2017-12-20T15:55:15.574Z,7.10
2017-12-20T15:57:46.940Z,7.00
2017-12-20T16:00:17.562Z,6.90
2017-12-20T16:02:48.095Z,7.00
2017-12-20T16:05:19.193Z,6.90
2017-12-20T16:07:49.624Z,6.80
2017-12-20T16:10:20.728Z,6.80
2017-12-20T16:12:51.300Z,6.80
2017-12-20T16:15:22.602Z,6.80
2017-12-20T16:17:53.102Z,6.80
2017-12-20T16:20:24.015Z,6.80
2017-12-20T16:22:55.252Z,6.80
2017-12-20T16:25:25.769Z,6.80
2017-12-20T16:27:57.146Z,6.80
2017-12-20T16:30:28.563Z,6.80
2017-12-20T16:32:59.082Z,6.80
2017-12-20T16:35:29.497Z,6.80
2017-12-20T16:38:00.050Z,6.80
2017-12-20T16:40:30.418Z,6.80
2017-12-20T16:43:01.746Z,6.80
2017-12-20T16:45:33.485Z,6.70
2017-12-20T16:48:03.967Z,6.70
2017-12-20T16:50:34.274Z,6.70
2017-12-20T16:53:04.700Z,6.70
2017-12-20T16:55:35.480Z,6.80
2017-12-20T16:58:05.797Z,6.80
2017-12-20T17:00:36.103Z,6.80
2017-12-20T17:03:07.845Z,6.80
2017-12-20T17:05:38.275Z,6.80
2017-12-20T17:08:09.203Z,6.70
2017-12-20T17:10:41.021Z,6.70
2017-12-20T17:13:12.172Z,6.80
2017-12-20T17:15:43.557Z,6.80
2017-12-20T17:18:14.006Z,6.70
2017-12-20T17:20:44.358Z,6.90
2017-12-20T17:23:15.090Z,6.90
2017-12-20T17:25:45.421Z,6.90
2017-12-20T17:28:16.172Z,6.90
2017-12-20T17:30:46.457Z,7.00
2017-12-20T17:33:16.994Z,7.10
2017-12-20T17:35:47.256Z,7.10
2017-12-20T17:38:18.314Z,7.00
2017-12-20T17:40:49.033Z,7.00
2017-12-20T17:43:20.276Z,7.10
2017-12-20T17:45:50.895Z,7.00
2017-12-20T17:48:21.823Z,7.00
2017-12-20T17:50:52.336Z,6.90
2017-12-20T17:53:22.657Z,6.80
2017-12-20T17:55:53.190Z,6.80
2017-12-20T17:58:24.493Z,6.80
2017-12-20T18:00:55.238Z,6.90
2017-12-20T18:03:25.878Z,6.90
2017-12-20T18:05:57.417Z,6.80
2017-12-20T18:08:28.727Z,6.80
2017-12-20T18:10:59.029Z,6.80
2017-12-20T18:13:30.628Z,6.70
2017-12-20T18:16:02.938Z,6.80
2017-12-20T18:18:34.466Z,6.80
2017-12-20T18:21:05.752Z,6.70
2017-12-20T18:23:36.578Z,6.70
2017-12-20T18:26:08.229Z,6.70
2017-12-20T18:28:38.870Z,6.70
2017-12-20T18:31:09.470Z,6.80
2017-12-20T18:33:40.038Z,6.80
2017-12-20T18:36:10.554Z,6.80
2017-12-20T18:38:41.054Z,6.80
2017-12-20T18:41:11.874Z,6.80
2017-12-20T18:43:42.278Z,6.80
2017-12-20T18:46:13.874Z,6.80
2017-12-20T18:48:44.382Z,6.80
2017-12-20T18:51:15.199Z,6.80
2017-12-20T18:53:46.591Z,6.80
2017-12-20T18:56:17.509Z,6.80
2017-12-20T18:58:47.961Z,6.80
2017-12-20T19:01:18.704Z,6.80
2017-12-20T19:03:49.472Z,6.70
2017-12-20T19:06:20.125Z,6.70
2017-12-20T19:08:50.497Z,6.70
2017-12-20T19:11:20.962Z,6.70
2017-12-20T19:13:51.275Z,6.70
2017-12-20T19:16:21.681Z,6.70
2017-12-20T19:18:53.054Z,6.70
2017-12-20T19:21:24.248Z,6.70
2017-12-20T19:23:54.965Z,6.70
2017-12-20T19:26:25.252Z,6.70
2017-12-20T19:28:55.658Z,6.70
2017-12-20T19:31:26.761Z,6.70
2017-12-20T19:33:57.481Z,6.70
2017-12-20T19:36:27.965Z,6.80
2017-12-20T19:38:58.545Z,6.70
2017-12-20T19:41:28.953Z,6.70
2017-12-20T19:43:59.406Z,6.80
2017-12-20T19:46:29.802Z,6.70
2017-12-20T19:49:01.233Z,6.80
2017-12-20T19:51:31.780Z,6.80
2017-12-20T19:54:02.331Z,6.80
2017-12-20T19:56:33.167Z,6.80
2017-12-20T19:59:03.646Z,6.80
2017-12-20T20:01:33.898Z,6.80
2017-12-20T20:04:04.615Z,6.80
2017-12-20T20:06:34.962Z,6.80
2017-12-20T20:09:06.101Z,6.90
2017-12-20T20:11:36.787Z,7.00
2017-12-20T20:14:07.263Z,7.00
2017-12-20T20:16:38.202Z,7.00
2017-12-20T20:19:08.565Z,6.90
2017-12-20T20:21:39.284Z,7.00
2017-12-20T20:24:10.125Z,6.90
2017-12-20T20:26:40.484Z,7.00
2017-12-20T20:29:10.924Z,7.00
2017-12-20T20:31:41.982Z,6.90
2017-12-20T20:34:13.497Z,6.90
2017-12-20T20:36:44.222Z,6.90
2017-12-20T20:39:14.557Z,6.90
2017-12-20T20:41:45.197Z,6.90
2017-12-20T20:44:15.817Z,6.90
2017-12-20T20:46:47.914Z,6.90
2017-12-20T20:49:20.324Z,6.90
2017-12-20T20:51:50.749Z,6.90
2017-12-20T20:54:22.920Z,6.90
2017-12-20T20:56:54.103Z,6.90
2017-12-20T20:59:24.874Z,6.90
2017-12-20T21:01:55.360Z,6.90
2017-12-20T21:04:26.875Z,6.90
2017-12-20T21:06:58.417Z,6.90
2017-12-20T21:09:29.362Z,6.90
2017-12-20T21:11:59.864Z,6.90
2017-12-20T21:14:30.405Z,6.90
2017-12-20T21:17:00.837Z,6.90
2017-12-20T21:19:31.428Z,6.90
2017-12-20T21:22:02.569Z,6.90
2017-12-20T21:24:35.008Z,6.90
2017-12-20T21:27:05.426Z,6.90
2017-12-20T21:29:37.766Z,6.90
2017-12-20T21:32:08.305Z,6.90
2017-12-20T21:34:39.154Z,7.00
2017-12-20T21:37:10.122Z,6.90
2017-12-20T21:39:41.879Z,7.00
2017-12-20T21:42:12.218Z,7.00
2017-12-20T21:44:44.393Z,7.00
2017-12-20T21:47:16.167Z,7.00
2017-12-20T21:49:47.770Z,7.00
2017-12-20T21:52:18.958Z,7.00
2017-12-20T21:54:49.489Z,7.00
2017-12-20T21:57:20.940Z,7.00
2017-12-20T21:59:52.704Z,7.00
2017-12-20T22:02:23.362Z,7.00
2017-12-20T22:05:03.048Z,7.00
2017-12-20T22:07:34.017Z,7.00
2017-12-20T22:10:04.559Z,7.20
2017-12-20T22:12:36.764Z,7.10
2017-12-20T22:15:07.226Z,7.10
2017-12-20T22:17:38.498Z,7.10
2017-12-20T22:20:08.998Z,7.10
2017-12-20T22:22:39.809Z,7.20
2017-12-20T22:25:10.790Z,7.10
2017-12-20T22:27:41.495Z,7.10
2017-12-20T22:30:11.927Z,7.10
2017-12-20T22:32:42.963Z,7.20
2017-12-20T22:35:14.214Z,7.20
2017-12-20T22:37:45.531Z,7.10
2017-12-20T22:40:16.821Z,7.10
2017-12-20T22:42:47.206Z,7.10
2017-12-20T22:45:17.911Z,7.10
2017-12-20T22:47:48.840Z,7.10
2017-12-20T22:50:19.267Z,7.10
2017-12-20T22:52:49.911Z,7.10
2017-12-20T22:55:20.693Z,7.10
2017-12-20T22:57:51.577Z,7.10
2017-12-20T23:00:27.196Z,7.10
2017-12-20T23:02:57.740Z,7.10
2017-12-20T23:05:28.248Z,7.10
2017-12-20T23:07:59.018Z,7.10
2017-12-20T23:10:30.081Z,7.10
2017-12-20T23:13:00.894Z,7.10
2017-12-20T23:15:31.344Z,7.10
2017-12-20T23:18:02.050Z,7.10
2017-12-20T23:20:32.356Z,7.20
2017-12-20T23:23:02.724Z,7.20
2017-12-20T23:25:33.898Z,7.20
2017-12-20T23:28:04.698Z,7.20
2017-12-20T23:30:35.638Z,7.20
2017-12-20T23:33:07.002Z,7.30
2017-12-20T23:35:37.862Z,7.30
2017-12-20T23:38:08.259Z,7.30
2017-12-20T23:40:38.546Z,7.30
2017-12-20T23:43:09.628Z,7.30
2017-12-20T23:45:40.066Z,7.30
2017-12-20T23:48:10.583Z,7.20
2017-12-20T23:50:41.117Z,7.20
2017-12-20T23:53:11.702Z,7.20
2017-12-20T23:55:41.917Z,7.20
2017-12-20T23:58:12.327Z,7.20
